createdAt,value
2017-01-26T00:00:30.542Z,0
2017-01-26T00:01:30.503Z,0
2017-01-26T00:02:30.502Z,0
2017-01-26T00:03:30.486Z,0
2017-01-26T00:04:30.469Z,0
2017-01-26T00:05:30.476Z,0
2017-01-26T00:06:30.438Z,0
2017-01-26T00:07:30.404Z,0
2017-01-26T00:08:30.391Z,0
2017-01-26T00:09:30.385Z,0
2017-01-26T00:10:30.363Z,0
2017-01-26T00:11:30.328Z,0
2017-01-26T00:12:30.316Z,0
2017-01-26T00:13:30.293Z,0
2017-01-26T00:14:30.298Z,0
2017-01-26T00:15:30.271Z,0
2017-01-26T00:16:30.255Z,0
2017-01-26T00:17:30.266Z,0
2017-01-26T00:18:30.208Z,0
2017-01-26T00:19:30.210Z,0
2017-01-26T00:20:30.195Z,0
2017-01-26T00:21:30.166Z,0
2017-01-26T00:22:30.529Z,0
2017-01-26T00:23:30.135Z,0
2017-01-26T00:24:30.121Z,0
2017-01-26T00:25:30.083Z,0
2017-01-26T00:26:30.068Z,0
2017-01-26T00:27:30.045Z,0
2017-01-26T00:28:30.054Z,0
2017-01-26T00:29:30.030Z,0
2017-01-26T00:30:29.993Z,0
2017-01-26T00:31:29.981Z,0
2017-01-26T00:32:29.970Z,0
2017-01-26T00:33:29.936Z,0
2017-01-26T00:34:29.930Z,0
2017-01-26T00:35:29.918Z,0
2017-01-26T00:36:29.908Z,0
2017-01-26T00:37:29.891Z,0
2017-01-26T00:38:29.892Z,0
2017-01-26T00:39:29.853Z,0
2017-01-26T00:40:29.826Z,0
2017-01-26T00:41:29.804Z,0
2017-01-26T00:42:29.821Z,0
2017-01-26T00:43:29.772Z,0
2017-01-26T00:44:29.736Z,0
2017-01-26T00:45:29.732Z,0
2017-01-26T00:46:29.735Z,0
2017-01-26T00:47:29.695Z,0
2017-01-26T00:48:29.682Z,0
2017-01-26T00:49:29.659Z,0
2017-01-26T00:50:29.652Z,0
2017-01-26T00:51:29.634Z,0
2017-01-26T00:52:29.619Z,0
2017-01-26T00:53:29.583Z,0
2017-01-26T00:54:29.588Z,0
2017-01-26T00:55:29.566Z,0
2017-01-26T00:56:29.536Z,0
2017-01-26T00:57:29.527Z,0
2017-01-26T00:58:29.520Z,0
2017-01-26T00:59:29.494Z,0
2017-01-26T01:00:29.510Z,0
2017-01-26T01:01:29.449Z,0
2017-01-26T01:02:29.435Z,0
2017-01-26T01:03:29.429Z,0
2017-01-26T01:04:29.400Z,0
2017-01-26T01:05:29.392Z,0
2017-01-26T01:06:29.370Z,0
2017-01-26T01:07:29.349Z,0
2017-01-26T01:08:29.327Z,0
2017-01-26T01:09:29.313Z,0
2017-01-26T01:10:29.315Z,0
2017-01-26T01:11:29.285Z,0
2017-01-26T01:12:29.259Z,0
2017-01-26T01:13:29.250Z,0
2017-01-26T01:14:29.231Z,0
2017-01-26T01:15:29.206Z,0
2017-01-26T01:16:29.196Z,0
2017-01-26T01:17:29.171Z,0
2017-01-26T01:18:29.153Z,0
2017-01-26T01:19:29.142Z,0
2017-01-26T01:20:29.125Z,0
2017-01-26T01:21:29.099Z,0
2017-01-26T01:22:29.097Z,0
2017-01-26T01:23:29.076Z,0
2017-01-26T01:24:29.040Z,0
2017-01-26T01:25:29.036Z,0
2017-01-26T01:26:29.021Z,0
2017-01-26T01:27:28.999Z,0
2017-01-26T01:28:28.978Z,0
2017-01-26T01:29:28.965Z,0
2017-01-26T01:30:28.928Z,0
2017-01-26T01:31:28.929Z,0
2017-01-26T01:32:28.915Z,0
2017-01-26T01:33:28.897Z,0
2017-01-26T01:34:28.868Z,0
2017-01-26T01:35:28.850Z,0
2017-01-26T01:36:28.843Z,0
2017-01-26T01:37:28.835Z,0
2017-01-26T01:38:28.796Z,0
2017-01-26T01:39:28.780Z,0
2017-01-26T01:40:28.750Z,0
2017-01-26T01:41:28.745Z,0
2017-01-26T01:42:28.734Z,0
2017-01-26T01:43:28.715Z,0
2017-01-26T01:44:28.677Z,0
2017-01-26T01:45:28.680Z,0
2017-01-26T01:46:28.661Z,0
2017-01-26T01:47:28.679Z,0
2017-01-26T01:48:28.629Z,0
2017-01-26T01:49:28.604Z,0
2017-01-26T01:50:28.582Z,0
2017-01-26T01:51:28.571Z,0
2017-01-26T01:52:28.538Z,0
2017-01-26T01:53:28.538Z,0
2017-01-26T01:54:28.506Z,0
2017-01-26T01:55:28.487Z,0
2017-01-26T01:56:28.480Z,0
2017-01-26T01:57:28.479Z,0
2017-01-26T01:58:28.440Z,0
2017-01-26T01:59:28.430Z,0
2017-01-26T02:00:28.410Z,0
2017-01-26T02:01:28.384Z,0
2017-01-26T02:02:28.367Z,0
2017-01-26T02:03:28.379Z,0
2017-01-26T02:04:28.334Z,0
2017-01-26T02:05:28.311Z,0
2017-01-26T02:06:28.289Z,0
2017-01-26T02:07:28.271Z,0
2017-01-26T02:08:28.269Z,0
2017-01-26T02:09:28.253Z,0
2017-01-26T02:10:28.224Z,0
2017-01-26T02:11:28.198Z,0
2017-01-26T02:12:28.200Z,0
2017-01-26T02:13:28.166Z,0
2017-01-26T02:14:28.143Z,0
2017-01-26T02:15:28.159Z,0
2017-01-26T02:16:28.123Z,0
2017-01-26T02:17:28.088Z,0
2017-01-26T02:18:28.088Z,0
2017-01-26T02:19:28.061Z,0
2017-01-26T02:20:28.031Z,0
2017-01-26T02:21:28.025Z,0
2017-01-26T02:22:28.006Z,0
2017-01-26T02:23:27.986Z,0
2017-01-26T02:24:27.977Z,0
2017-01-26T02:25:27.952Z,0
2017-01-26T02:26:27.934Z,0
2017-01-26T02:27:27.911Z,0
2017-01-26T02:28:27.931Z,0
2017-01-26T02:29:27.876Z,0
2017-01-26T02:30:27.866Z,0
2017-01-26T02:31:27.845Z,0
2017-01-26T02:32:27.823Z,0
2017-01-26T02:33:27.820Z,0
2017-01-26T02:34:27.796Z,0
2017-01-26T02:35:27.779Z,0
2017-01-26T02:36:27.746Z,0
2017-01-26T02:37:27.734Z,0
2017-01-26T02:38:27.728Z,0
2017-01-26T02:39:27.701Z,0
2017-01-26T02:40:27.684Z,0
2017-01-26T02:41:27.650Z,0
2017-01-26T02:42:27.642Z,0
2017-01-26T02:43:27.634Z,0
2017-01-26T02:44:27.598Z,0
2017-01-26T02:45:27.586Z,0
2017-01-26T02:46:27.608Z,0
2017-01-26T02:47:27.556Z,0
2017-01-26T02:48:27.534Z,0
2017-01-26T02:49:27.521Z,0
2017-01-26T02:50:27.485Z,0
2017-01-26T02:51:27.480Z,0
2017-01-26T02:52:27.469Z,0
2017-01-26T02:53:27.446Z,0
2017-01-26T02:54:27.429Z,0
2017-01-26T02:55:27.398Z,0
2017-01-26T02:56:27.389Z,0
2017-01-26T02:57:27.394Z,0
2017-01-26T02:58:27.345Z,0
2017-01-26T02:59:27.340Z,0
2017-01-26T03:00:27.318Z,0
2017-01-26T03:01:27.306Z,0
2017-01-26T03:02:27.266Z,0
2017-01-26T03:03:27.261Z,0
2017-01-26T03:04:27.239Z,0
2017-01-26T03:05:27.217Z,0
2017-01-26T03:06:27.207Z,0
2017-01-26T03:07:27.187Z,0
2017-01-26T03:08:27.165Z,0
2017-01-26T03:09:27.163Z,0
2017-01-26T03:10:27.135Z,0
2017-01-26T03:11:27.123Z,0
2017-01-26T03:12:27.148Z,0
2017-01-26T03:13:27.105Z,0
2017-01-26T03:14:27.058Z,0
2017-01-26T03:15:27.050Z,0
2017-01-26T03:16:27.018Z,0
2017-01-26T03:17:27.009Z,0
2017-01-26T03:18:26.987Z,0
2017-01-26T03:19:26.981Z,0
2017-01-26T03:20:26.963Z,0
2017-01-26T03:21:26.941Z,0
2017-01-26T03:22:26.911Z,0
2017-01-26T03:23:26.897Z,0
2017-01-26T03:24:26.891Z,0
2017-01-26T03:25:26.878Z,0
2017-01-26T03:26:26.884Z,0
2017-01-26T03:27:26.844Z,0
2017-01-26T03:28:26.818Z,0
2017-01-26T03:29:26.801Z,0
2017-01-26T03:30:26.782Z,0
2017-01-26T03:31:26.794Z,0
2017-01-26T03:32:26.734Z,0
2017-01-26T03:33:26.723Z,0
2017-01-26T03:34:26.693Z,0
2017-01-26T03:35:26.698Z,0
2017-01-26T03:36:26.674Z,0
2017-01-26T03:37:26.645Z,0
2017-01-26T03:38:26.640Z,0
2017-01-26T03:39:26.622Z,0
2017-01-26T03:40:26.587Z,0
2017-01-26T03:41:26.563Z,0
2017-01-26T03:42:26.564Z,0
2017-01-26T03:43:26.540Z,0
2017-01-26T03:44:26.549Z,0
2017-01-26T03:45:26.506Z,0
2017-01-26T03:46:26.477Z,0
2017-01-26T03:47:26.470Z,0
2017-01-26T03:48:26.462Z,0
2017-01-26T03:49:26.439Z,0
2017-01-26T03:50:26.416Z,0
2017-01-26T03:51:26.397Z,0
2017-01-26T03:52:26.418Z,0
2017-01-26T03:53:26.379Z,0
2017-01-26T03:54:26.352Z,0
2017-01-26T03:55:26.720Z,0
2017-01-26T03:56:26.315Z,0
2017-01-26T03:57:26.293Z,0
2017-01-26T03:58:26.292Z,0
2017-01-26T03:59:26.251Z,0
2017-01-26T04:00:26.230Z,0
2017-01-26T04:01:26.217Z,0
2017-01-26T04:02:26.214Z,0
2017-01-26T04:03:26.185Z,0
2017-01-26T04:04:26.174Z,0
2017-01-26T04:05:26.157Z,0
2017-01-26T04:06:26.137Z,0
2017-01-26T04:07:26.141Z,0
2017-01-26T04:08:26.107Z,0
2017-01-26T04:09:26.075Z,0
2017-01-26T04:10:26.057Z,0
2017-01-26T04:11:26.045Z,0
2017-01-26T04:12:26.009Z,0
2017-01-26T04:13:26.009Z,0
2017-01-26T04:14:25.988Z,0
2017-01-26T04:15:25.975Z,0
2017-01-26T04:16:25.960Z,0
2017-01-26T04:17:25.928Z,0
2017-01-26T04:18:25.916Z,0
2017-01-26T04:19:25.910Z,0
2017-01-26T04:20:25.888Z,0
2017-01-26T04:21:25.854Z,0
2017-01-26T04:22:25.839Z,0
2017-01-26T04:23:25.834Z,0
2017-01-26T04:24:25.799Z,0
2017-01-26T04:25:25.798Z,0
2017-01-26T04:26:25.775Z,0
2017-01-26T04:27:25.756Z,0
2017-01-26T04:28:25.749Z,0
2017-01-26T04:29:25.725Z,0
2017-01-26T04:30:25.682Z,0
2017-01-26T04:31:25.690Z,0
2017-01-26T04:32:25.667Z,0
2017-01-26T04:33:25.643Z,0
2017-01-26T04:34:25.622Z,0
2017-01-26T04:35:25.620Z,0
2017-01-26T04:36:25.589Z,0
2017-01-26T04:37:25.582Z,0
2017-01-26T04:38:25.565Z,0
2017-01-26T04:39:25.547Z,0
2017-01-26T04:40:25.521Z,0
2017-01-26T04:41:25.505Z,0
2017-01-26T04:42:25.498Z,0
2017-01-26T04:43:25.858Z,0
2017-01-26T04:44:25.464Z,0
2017-01-26T04:45:25.421Z,0
2017-01-26T04:46:25.423Z,0
2017-01-26T04:47:25.406Z,0
2017-01-26T04:48:25.375Z,0
2017-01-26T04:49:25.364Z,0
2017-01-26T04:50:25.333Z,0
2017-01-26T04:51:25.331Z,0
2017-01-26T04:52:25.299Z,0
2017-01-26T04:53:25.282Z,0
2017-01-26T04:54:25.272Z,0
2017-01-26T04:55:25.249Z,0
2017-01-26T04:56:25.235Z,0
2017-01-26T04:57:25.205Z,0
2017-01-26T04:58:25.201Z,0
2017-01-26T04:59:25.178Z,0
2017-01-26T05:00:25.155Z,0
2017-01-26T05:01:25.135Z,0
2017-01-26T05:02:25.503Z,0
2017-01-26T05:03:25.105Z,0
2017-01-26T05:04:25.085Z,0
2017-01-26T05:05:25.081Z,0
2017-01-26T05:06:25.059Z,0
2017-01-26T05:07:25.033Z,0
2017-01-26T05:08:25.000Z,0
2017-01-26T05:09:24.983Z,0
2017-01-26T05:10:24.982Z,0
2017-01-26T05:11:24.954Z,0
2017-01-26T05:12:24.935Z,0
2017-01-26T05:13:24.924Z,0
2017-01-26T05:14:24.906Z,0
2017-01-26T05:15:24.880Z,0
2017-01-26T05:16:24.872Z,0
2017-01-26T05:17:24.849Z,0
2017-01-26T05:18:24.828Z,0
2017-01-26T05:19:24.815Z,0
2017-01-26T05:20:24.794Z,0
2017-01-26T05:21:24.786Z,0
2017-01-26T05:22:24.750Z,0
2017-01-26T05:23:24.745Z,0
2017-01-26T05:24:24.730Z,0
2017-01-26T05:25:24.696Z,0
2017-01-26T05:26:24.725Z,0
2017-01-26T05:27:24.667Z,0
2017-01-26T05:28:24.658Z,0
2017-01-26T05:29:24.623Z,0
2017-01-26T05:30:24.633Z,0
2017-01-26T05:31:24.598Z,0
2017-01-26T05:32:24.601Z,0
2017-01-26T05:33:24.557Z,0
2017-01-26T05:34:24.531Z,0
2017-01-26T05:35:24.538Z,0
2017-01-26T05:36:24.513Z,0
2017-01-26T05:37:24.492Z,0
2017-01-26T05:38:24.469Z,0
2017-01-26T05:39:24.474Z,0
2017-01-26T05:40:24.432Z,0
2017-01-26T05:41:24.407Z,0
2017-01-26T05:42:24.393Z,0
2017-01-26T05:43:24.388Z,0
2017-01-26T05:44:24.363Z,0
2017-01-26T05:45:24.361Z,0
2017-01-26T05:46:24.325Z,0
2017-01-26T05:47:24.312Z,0
2017-01-26T05:48:24.288Z,0
2017-01-26T05:49:24.257Z,0
2017-01-26T05:50:24.245Z,0
2017-01-26T05:51:24.236Z,0
2017-01-26T05:52:24.221Z,0
2017-01-26T05:53:24.193Z,0
2017-01-26T05:54:24.178Z,0
2017-01-26T05:55:24.179Z,0
2017-01-26T05:56:24.134Z,0
2017-01-26T05:57:24.116Z,0
2017-01-26T05:58:24.106Z,0
2017-01-26T05:59:24.089Z,0
2017-01-26T06:00:24.079Z,0
2017-01-26T06:01:24.073Z,0
2017-01-26T06:02:24.053Z,0
2017-01-26T06:03:24.028Z,0
2017-01-26T06:04:23.986Z,0
2017-01-26T06:05:23.984Z,0
2017-01-26T06:06:23.969Z,0
2017-01-26T06:07:23.942Z,0
2017-01-26T06:08:23.924Z,0
2017-01-26T06:09:23.899Z,0
2017-01-26T06:10:23.905Z,0
2017-01-26T06:11:23.890Z,0
2017-01-26T06:12:23.864Z,0
2017-01-26T06:13:23.838Z,0
2017-01-26T06:14:23.828Z,0
2017-01-26T06:15:23.802Z,0
2017-01-26T06:16:23.779Z,0
2017-01-26T06:17:23.762Z,0
2017-01-26T06:18:24.135Z,0
2017-01-26T06:19:23.750Z,0
2017-01-26T06:20:23.704Z,0
2017-01-26T06:21:23.760Z,0
2017-01-26T06:22:23.676Z,0
2017-01-26T06:23:23.650Z,0
2017-01-26T06:24:23.646Z,0
2017-01-26T06:25:23.637Z,0
2017-01-26T06:26:23.605Z,0
2017-01-26T06:27:23.584Z,0
2017-01-26T06:28:23.551Z,0
2017-01-26T06:29:23.547Z,0
2017-01-26T06:30:23.533Z,0
2017-01-26T06:31:23.518Z,0
2017-01-26T06:32:23.502Z,5
2017-01-26T06:33:23.472Z,5
2017-01-26T06:34:23.462Z,5
2017-01-26T06:35:23.440Z,5
2017-01-26T06:36:23.430Z,5
2017-01-26T06:37:23.412Z,10
2017-01-26T06:38:23.369Z,10
2017-01-26T06:39:23.373Z,10
2017-01-26T06:40:23.354Z,10
2017-01-26T06:41:23.342Z,15
2017-01-26T06:42:23.320Z,15
2017-01-26T06:43:23.692Z,20
2017-01-26T06:44:23.287Z,20
2017-01-26T06:45:23.255Z,20
2017-01-26T06:46:23.265Z,25
2017-01-26T06:47:23.229Z,25
2017-01-26T06:48:23.206Z,30
2017-01-26T06:49:23.192Z,35
2017-01-26T06:50:23.177Z,40
2017-01-26T06:51:23.149Z,50
2017-01-26T06:52:23.138Z,65
2017-01-26T06:53:23.112Z,80
2017-01-26T06:54:23.092Z,90
2017-01-26T06:55:23.067Z,95
2017-01-26T06:56:23.054Z,100
2017-01-26T06:57:23.041Z,110
2017-01-26T06:58:23.046Z,120
2017-01-26T06:59:23.011Z,125
2017-01-26T07:00:22.997Z,140
2017-01-26T07:01:22.982Z,140
2017-01-26T07:02:22.968Z,145
2017-01-26T07:03:22.941Z,150
2017-01-26T07:04:22.927Z,165
2017-01-26T07:05:22.903Z,170
2017-01-26T07:06:22.893Z,180
2017-01-26T07:07:22.862Z,190
2017-01-26T07:08:22.864Z,200
2017-01-26T07:09:22.831Z,210
2017-01-26T07:10:22.813Z,200
2017-01-26T07:11:22.799Z,200
2017-01-26T07:12:22.821Z,210
2017-01-26T07:13:23.157Z,225
2017-01-26T07:14:22.754Z,235
2017-01-26T07:15:22.743Z,230
2017-01-26T07:16:22.715Z,245
2017-01-26T07:17:22.699Z,260
2017-01-26T07:18:22.673Z,275
2017-01-26T07:19:22.653Z,270
2017-01-26T07:20:22.639Z,280
2017-01-26T07:21:22.642Z,290
2017-01-26T07:22:22.600Z,295
2017-01-26T07:23:22.595Z,310
2017-01-26T07:24:22.584Z,320
2017-01-26T07:25:22.574Z,320
2017-01-26T07:26:22.540Z,330
2017-01-26T07:27:22.537Z,350
2017-01-26T07:28:22.513Z,365
2017-01-26T07:29:22.495Z,385
2017-01-26T07:30:22.872Z,405
2017-01-26T07:31:22.470Z,410
2017-01-26T07:32:22.437Z,420
2017-01-26T07:33:22.428Z,430
2017-01-26T07:34:22.419Z,435
2017-01-26T07:35:22.381Z,445
2017-01-26T07:36:22.397Z,450
2017-01-26T07:37:22.373Z,465
2017-01-26T07:38:22.355Z,485
2017-01-26T07:39:22.322Z,485
2017-01-26T07:40:22.322Z,480
2017-01-26T07:41:22.311Z,500
2017-01-26T07:42:22.262Z,530
2017-01-26T07:43:22.270Z,550
2017-01-26T07:44:22.242Z,540
2017-01-26T07:45:22.254Z,550
2017-01-26T07:46:22.208Z,575
2017-01-26T07:47:22.206Z,585
2017-01-26T07:48:22.182Z,605
2017-01-26T07:49:22.548Z,600
2017-01-26T07:50:22.147Z,590
2017-01-26T07:51:22.137Z,595
2017-01-26T07:52:22.142Z,575
2017-01-26T07:53:22.087Z,555
2017-01-26T07:54:22.079Z,560
2017-01-26T07:55:22.064Z,590
2017-01-26T07:56:22.066Z,640
2017-01-26T07:57:22.024Z,675
2017-01-26T07:58:21.997Z,695
2017-01-26T07:59:21.990Z,720
2017-01-26T08:00:21.981Z,740
2017-01-26T08:01:21.979Z,760
2017-01-26T08:02:21.939Z,770
2017-01-26T08:03:21.927Z,755
2017-01-26T08:04:21.924Z,760
2017-01-26T08:05:21.896Z,820
2017-01-26T08:06:21.890Z,860
2017-01-26T08:07:21.862Z,875
2017-01-26T08:08:21.847Z,890
2017-01-26T08:09:21.834Z,865
2017-01-26T08:10:21.819Z,875
2017-01-26T08:11:21.807Z,925
2017-01-26T08:12:21.787Z,940
2017-01-26T08:13:21.778Z,955
2017-01-26T08:14:21.769Z,985
2017-01-26T08:15:21.758Z,985
2017-01-26T08:16:21.728Z,985
2017-01-26T08:17:21.711Z,1000
2017-01-26T08:18:21.708Z,1040
2017-01-26T08:19:21.700Z,1060
2017-01-26T08:20:21.686Z,1110
2017-01-26T08:21:21.671Z,1175
2017-01-26T08:22:21.657Z,1190
2017-01-26T08:23:21.642Z,1145
2017-01-26T08:24:21.624Z,1025
2017-01-26T08:25:21.617Z,1110
2017-01-26T08:26:21.593Z,1125
2017-01-26T08:27:21.585Z,1080
2017-01-26T08:28:21.571Z,1190
2017-01-26T08:29:21.547Z,1190
2017-01-26T08:30:21.543Z,1120
2017-01-26T08:31:21.552Z,1190
2017-01-26T08:32:21.535Z,1230
2017-01-26T08:33:21.506Z,1100
2017-01-26T08:34:21.495Z,1055
2017-01-26T08:35:21.501Z,1085
2017-01-26T08:36:21.472Z,1100
2017-01-26T08:37:21.459Z,1100
2017-01-26T08:38:21.453Z,1240
2017-01-26T08:39:21.430Z,1370
2017-01-26T08:40:21.422Z,1395
2017-01-26T08:41:21.415Z,1360
2017-01-26T08:42:21.427Z,1360
2017-01-26T08:43:21.376Z,1340
2017-01-26T08:44:21.368Z,1355
2017-01-26T08:45:21.361Z,1445
2017-01-26T08:46:21.356Z,1535
2017-01-26T08:47:21.350Z,1495
2017-01-26T08:48:21.326Z,1250
2017-01-26T08:49:21.323Z,1125
2017-01-26T08:50:21.308Z,1085
2017-01-26T08:51:21.300Z,1095
2017-01-26T08:52:21.283Z,1125
2017-01-26T08:53:21.266Z,1150
2017-01-26T08:54:21.249Z,1140
2017-01-26T08:55:21.248Z,1085
2017-01-26T08:56:21.240Z,1005
2017-01-26T08:57:21.226Z,970
2017-01-26T08:58:21.204Z,985
2017-01-26T08:59:21.198Z,1080
2017-01-26T09:00:21.177Z,1165
2017-01-26T09:01:21.206Z,1260
2017-01-26T09:02:21.173Z,1470
2017-01-26T09:03:21.143Z,1705
2017-01-26T09:04:21.131Z,1600
2017-01-26T09:05:21.127Z,1520
2017-01-26T09:06:21.124Z,1580
2017-01-26T09:07:21.134Z,1485
2017-01-26T09:08:21.079Z,1445
2017-01-26T09:09:21.057Z,1550
2017-01-26T09:10:21.049Z,1565
2017-01-26T09:11:21.418Z,1610
2017-01-26T09:12:21.025Z,1620
2017-01-26T09:13:21.015Z,1615
2017-01-26T09:14:21.002Z,1525
2017-01-26T09:15:20.986Z,1665
2017-01-26T09:16:20.987Z,1910
2017-01-26T09:17:20.962Z,1815
2017-01-26T09:18:20.946Z,1805
2017-01-26T09:19:20.928Z,1815
2017-01-26T09:20:20.917Z,1880
2017-01-26T09:21:20.898Z,1610
2017-01-26T09:22:20.904Z,1230
2017-01-26T09:23:20.890Z,1115
2017-01-26T09:24:20.867Z,1085
2017-01-26T09:25:20.880Z,1120
2017-01-26T09:26:20.841Z,1170
2017-01-26T09:27:20.818Z,1335
2017-01-26T09:28:20.798Z,1545
2017-01-26T09:29:20.789Z,1530
2017-01-26T09:30:20.785Z,1445
2017-01-26T09:31:20.763Z,1520
2017-01-26T09:32:20.744Z,1640
2017-01-26T09:33:20.728Z,1845
2017-01-26T09:34:20.715Z,2005
2017-01-26T09:35:20.725Z,2100
2017-01-26T09:36:20.896Z,1805
2017-01-26T09:37:20.883Z,1435
2017-01-26T09:38:20.646Z,1520
2017-01-26T09:39:20.643Z,1855
2017-01-26T09:40:20.623Z,2080
2017-01-26T09:41:20.609Z,1865
2017-01-26T09:42:20.606Z,1720
2017-01-26T09:43:20.606Z,1820
2017-01-26T09:44:20.576Z,1865
2017-01-26T09:45:20.554Z,1960
2017-01-26T09:46:20.546Z,1930
2017-01-26T09:47:20.545Z,1925
2017-01-26T09:48:20.524Z,1980
2017-01-26T09:49:20.514Z,1875
2017-01-26T09:50:20.503Z,1755
2017-01-26T09:51:20.486Z,1725
2017-01-26T09:52:20.483Z,1800
2017-01-26T09:53:20.469Z,1830
2017-01-26T09:54:20.447Z,1755
2017-01-26T09:55:20.421Z,1910
2017-01-26T09:56:20.427Z,2155
2017-01-26T09:57:20.401Z,1940
2017-01-26T09:58:20.405Z,1550
2017-01-26T09:59:20.388Z,1530
2017-01-26T10:00:20.376Z,1730
2017-01-26T10:01:20.367Z,1965
2017-01-26T10:02:20.360Z,2245
2017-01-26T10:03:20.348Z,2215
2017-01-26T10:04:20.315Z,2055
2017-01-26T10:05:20.321Z,2045
2017-01-26T10:06:20.312Z,1855
2017-01-26T10:07:20.484Z,1795
2017-01-26T10:08:20.467Z,1785
2017-01-26T10:09:20.259Z,1985
2017-01-26T10:10:20.263Z,2155
2017-01-26T10:11:20.238Z,2225
2017-01-26T10:12:20.222Z,2215
2017-01-26T10:13:20.205Z,2045
2017-01-26T10:14:20.194Z,2080
2017-01-26T10:15:20.194Z,1985
2017-01-26T10:16:20.170Z,2015
2017-01-26T10:17:20.165Z,2040
2017-01-26T10:18:20.145Z,2100
2017-01-26T10:19:20.127Z,2135
2017-01-26T10:20:20.121Z,2275
2017-01-26T10:21:20.103Z,2215
2017-01-26T10:22:20.107Z,2100
2017-01-26T10:23:20.113Z,2095
2017-01-26T10:24:20.084Z,2020
2017-01-26T10:25:20.062Z,1990
2017-01-26T10:26:20.056Z,1970
2017-01-26T10:27:20.035Z,1965
2017-01-26T10:28:20.043Z,1870
2017-01-26T10:29:20.031Z,1800
2017-01-26T10:30:20.391Z,1865
2017-01-26T10:31:19.997Z,1985
2017-01-26T10:32:19.985Z,1980
2017-01-26T10:33:19.977Z,1955
2017-01-26T10:34:19.967Z,1955
2017-01-26T10:35:19.963Z,1910
2017-01-26T10:36:19.936Z,1900
2017-01-26T10:37:19.947Z,2100
2017-01-26T10:38:19.923Z,2255
2017-01-26T10:39:20.114Z,1990
2017-01-26T10:40:19.891Z,1985
2017-01-26T10:41:19.886Z,2040
2017-01-26T10:42:19.888Z,2105
2017-01-26T10:43:19.871Z,2195
2017-01-26T10:44:19.851Z,2110
2017-01-26T10:45:19.858Z,2065
2017-01-26T10:46:19.837Z,2160
2017-01-26T10:47:19.816Z,2130
2017-01-26T10:48:19.813Z,2045
2017-01-26T10:49:19.805Z,2050
2017-01-26T10:50:19.806Z,2010
2017-01-26T10:51:19.772Z,1990
2017-01-26T10:52:19.790Z,2250
2017-01-26T10:53:19.786Z,2380
2017-01-26T10:54:19.755Z,2455
2017-01-26T10:55:19.751Z,2500
2017-01-26T10:56:19.745Z,2350
2017-01-26T10:57:19.735Z,2210
2017-01-26T10:58:19.714Z,2315
2017-01-26T10:59:19.717Z,2120
2017-01-26T11:00:20.093Z,2125
2017-01-26T11:01:19.679Z,2190
2017-01-26T11:02:19.684Z,2030
2017-01-26T11:03:19.669Z,1850
2017-01-26T11:04:19.666Z,1815
2017-01-26T11:05:19.645Z,1840
2017-01-26T11:06:19.640Z,1795
2017-01-26T11:07:19.627Z,1930
2017-01-26T11:08:19.612Z,2180
2017-01-26T11:09:19.615Z,2110
2017-01-26T11:10:19.608Z,2265
2017-01-26T11:11:19.800Z,2395
2017-01-26T11:12:19.570Z,2335
2017-01-26T11:13:19.550Z,2140
2017-01-26T11:14:19.540Z,2200
2017-01-26T11:15:19.531Z,2255
2017-01-26T11:16:19.529Z,2350
2017-01-26T11:17:19.511Z,2340
2017-01-26T11:18:19.508Z,2205
2017-01-26T11:19:19.490Z,2130
2017-01-26T11:20:19.509Z,2215
2017-01-26T11:21:19.468Z,2355
2017-01-26T11:22:19.445Z,2370
2017-01-26T11:23:19.440Z,2405
2017-01-26T11:24:19.411Z,2555
2017-01-26T11:25:19.419Z,2275
2017-01-26T11:26:19.401Z,2150
2017-01-26T11:27:19.376Z,2175
2017-01-26T11:28:19.384Z,2280
2017-01-26T11:29:19.366Z,2090
2017-01-26T11:30:19.359Z,2035
2017-01-26T11:31:19.341Z,2370
2017-01-26T11:32:19.336Z,2465
2017-01-26T11:33:19.317Z,2395
2017-01-26T11:34:19.292Z,2295
2017-01-26T11:35:19.304Z,2250
2017-01-26T11:36:19.290Z,2290
2017-01-26T11:37:19.271Z,2260
2017-01-26T11:38:54.704Z,1940
2017-01-26T11:39:31.856Z,2090
2017-01-26T11:40:31.847Z,2210
2017-01-26T11:41:31.819Z,2100
2017-01-26T11:42:31.805Z,2215
2017-01-26T11:43:31.811Z,2220
2017-01-26T11:44:31.800Z,2095
2017-01-26T11:45:31.799Z,2030
2017-01-26T11:46:31.779Z,1945
2017-01-26T11:47:31.767Z,2105
2017-01-26T11:48:31.759Z,2170
2017-01-26T11:49:31.741Z,2175
2017-01-26T11:50:31.734Z,2290
2017-01-26T11:51:31.732Z,2190
2017-01-26T11:52:31.737Z,1955
2017-01-26T11:53:31.707Z,2095
2017-01-26T11:54:31.699Z,2330
2017-01-26T11:55:31.705Z,2380
2017-01-26T11:56:31.682Z,2365
2017-01-26T11:57:32.376Z,2215
2017-01-26T11:58:31.656Z,2220
2017-01-26T11:59:31.659Z,2345
2017-01-26T12:00:31.645Z,2235
2017-01-26T12:01:31.633Z,2065
2017-01-26T12:02:31.627Z,1950
2017-01-26T12:03:31.619Z,1960
2017-01-26T12:04:31.604Z,2095
2017-01-26T12:05:31.598Z,2035
2017-01-26T12:06:31.575Z,1870
2017-01-26T12:07:31.585Z,2045
2017-01-26T12:08:31.564Z,2175
2017-01-26T12:09:31.584Z,2130
2017-01-26T12:10:31.553Z,2185
2017-01-26T12:11:35.773Z,2100
2017-01-26T12:12:31.535Z,2055
2017-01-26T12:13:31.525Z,2130
2017-01-26T12:14:31.515Z,1980
2017-01-26T12:15:31.499Z,1975
2017-01-26T12:16:31.504Z,2100
2017-01-26T12:17:31.476Z,2090
2017-01-26T12:18:31.476Z,2070
2017-01-26T12:19:31.459Z,1855
2017-01-26T12:20:31.482Z,1785
2017-01-26T12:21:31.445Z,2095
2017-01-26T12:22:31.435Z,2325
2017-01-26T12:23:31.429Z,2095
2017-01-26T12:24:31.429Z,2090
2017-01-26T12:25:31.408Z,2290
2017-01-26T12:26:31.408Z,2175
2017-01-26T12:27:31.383Z,2025
2017-01-26T12:28:31.394Z,2055
2017-01-26T12:29:31.384Z,2090
2017-01-26T12:30:31.363Z,2130
2017-01-26T12:31:31.350Z,2195
2017-01-26T12:32:31.341Z,2165
2017-01-26T12:33:31.334Z,1960
2017-01-26T12:34:31.340Z,1815
2017-01-26T12:35:31.341Z,1900
2017-01-26T12:36:31.307Z,2175
2017-01-26T12:37:31.300Z,2340
2017-01-26T12:38:31.281Z,2110
2017-01-26T12:39:31.308Z,1950
2017-01-26T12:40:31.286Z,1845
2017-01-26T12:41:31.276Z,1675
2017-01-26T12:42:31.262Z,1855
2017-01-26T12:43:31.226Z,1740
2017-01-26T12:44:31.231Z,1835
2017-01-26T12:45:31.227Z,1995
2017-01-26T12:46:31.207Z,1910
2017-01-26T12:47:31.191Z,1950
2017-01-26T12:48:31.183Z,2115
2017-01-26T12:49:31.187Z,1995
2017-01-26T12:50:31.167Z,2050
2017-01-26T12:51:31.156Z,2050
2017-01-26T12:52:31.158Z,2225
2017-01-26T12:53:31.132Z,2265
2017-01-26T12:54:31.123Z,1915
2017-01-26T12:55:31.127Z,1825
2017-01-26T12:56:31.253Z,1825
2017-01-26T12:57:31.094Z,1760
2017-01-26T12:58:31.091Z,1840
2017-01-26T12:59:31.085Z,1765
2017-01-26T13:00:31.071Z,1735
2017-01-26T13:01:31.043Z,1935
2017-01-26T13:02:31.048Z,2085
2017-01-26T13:03:31.046Z,1955
2017-01-26T13:04:31.063Z,1765
2017-01-26T13:05:31.011Z,1735
2017-01-26T13:06:31.017Z,1840
2017-01-26T13:07:30.997Z,2030
2017-01-26T13:08:31.003Z,2000
2017-01-26T13:09:30.968Z,1935
2017-01-26T13:10:30.987Z,1915
2017-01-26T13:11:30.954Z,1905
2017-01-26T13:12:30.951Z,1770
2017-01-26T13:13:30.937Z,1760
2017-01-26T13:14:30.915Z,1760
2017-01-26T13:15:30.914Z,1900
2017-01-26T13:16:30.894Z,1985
2017-01-26T13:17:30.890Z,2060
2017-01-26T13:18:30.883Z,2045
2017-01-26T13:19:30.881Z,1930
2017-01-26T13:20:30.866Z,1875
2017-01-26T13:21:30.851Z,1985
2017-01-26T13:22:30.847Z,1995
2017-01-26T13:23:30.824Z,1915
2017-01-26T13:24:30.814Z,1930
2017-01-26T13:25:30.808Z,1800
2017-01-26T13:26:30.795Z,1680
2017-01-26T13:27:31.942Z,1750
2017-01-26T13:28:31.923Z,1805
2017-01-26T13:29:32.304Z,1790
2017-01-26T13:30:32.311Z,1740
2017-01-26T13:31:32.341Z,1675
2017-01-26T13:32:31.893Z,1625
2017-01-26T13:33:32.280Z,1595
2017-01-26T13:34:32.266Z,1540
2017-01-26T13:35:32.252Z,1540
2017-01-26T13:36:32.235Z,1525
2017-01-26T13:37:32.221Z,1475
2017-01-26T13:38:32.235Z,1530
2017-01-26T13:39:32.229Z,1540
2017-01-26T13:40:32.196Z,1440
2017-01-26T13:41:32.189Z,1375
2017-01-26T13:42:32.182Z,1480
2017-01-26T13:43:31.797Z,1430
2017-01-26T13:44:32.165Z,1405
2017-01-26T13:45:32.149Z,1600
2017-01-26T13:46:32.151Z,1705
2017-01-26T13:47:32.121Z,1660
2017-01-26T13:48:32.145Z,1665
2017-01-26T13:49:32.121Z,1600
2017-01-26T13:50:31.704Z,1415
2017-01-26T13:51:32.096Z,1645
2017-01-26T13:52:32.083Z,1660
2017-01-26T13:53:32.086Z,1465
2017-01-26T13:54:32.057Z,1450
2017-01-26T13:55:32.052Z,1615
2017-01-26T13:56:31.657Z,1635
2017-01-26T13:57:31.644Z,1505
2017-01-26T13:58:32.028Z,1390
2017-01-26T13:59:32.022Z,1300
2017-01-26T14:00:31.628Z,1260
2017-01-26T14:01:31.594Z,1260
2017-01-26T14:02:31.977Z,1190